createdAt,value
2018-11-23T00:01:40.456Z,-1.20
2018-11-23T00:04:10.253Z,-1.30
2018-11-23T00:06:38.097Z,-1.30
2018-11-23T00:09:07.543Z,-1.30
2018-11-23T00:11:35.196Z,-1.20
2018-11-23T00:14:04.898Z,-1.20
2018-11-23T00:16:34.196Z,-1.20
2018-11-23T00:19:03.747Z,-1.30
2018-11-23T00:21:32.732Z,-1.40
2018-11-23T00:24:03.484Z,-1.40
2018-11-23T00:26:35.704Z,-1.50
2018-11-23T00:29:05.307Z,-1.50
2018-11-23T00:31:35.888Z,-1.50
2018-11-23T00:34:05.480Z,-1.50
2018-11-23T00:36:35.465Z,-1.60
2018-11-23T00:39:04.410Z,-1.60
2018-11-23T00:41:34.638Z,-1.60
2018-11-23T00:44:03.253Z,-1.60
2018-11-23T00:46:34.875Z,-1.60
2018-11-23T00:49:02.590Z,-1.50
2018-11-23T00:51:32.175Z,-1.50
2018-11-23T00:54:01.721Z,-1.60
2018-11-23T00:56:32.055Z,-1.70
2018-11-23T00:59:02.262Z,-1.80
2018-11-23T01:01:35.147Z,-1.80
2018-11-23T01:04:04.447Z,-1.80
2018-11-23T01:06:33.355Z,-1.90
2018-11-23T01:09:05.503Z,-1.90
2018-11-23T01:11:35.383Z,-1.90
2018-11-23T01:14:04.484Z,-1.90
2018-11-23T01:16:33.519Z,-1.90
2018-11-23T01:19:04.147Z,-1.90
2018-11-23T01:21:31.790Z,-2.00
2018-11-23T01:24:00.540Z,-2.10
2018-11-23T01:26:30.206Z,-2.10
2018-11-23T01:28:59.979Z,-2.20
2018-11-23T01:31:27.778Z,-2.20
2018-11-23T01:33:55.355Z,-2.10
2018-11-23T01:36:23.747Z,-2.10
2018-11-23T01:38:53.027Z,-2.10
2018-11-23T01:41:22.711Z,-2.20
2018-11-23T01:43:53.778Z,-2.20
2018-11-23T01:46:21.484Z,-2.20
2018-11-23T01:48:51.469Z,-2.20
2018-11-23T01:51:21.206Z,-2.30
2018-11-23T01:53:52.198Z,-2.20
2018-11-23T01:56:19.969Z,-2.20
2018-11-23T01:58:47.466Z,-2.20
2018-11-23T02:01:15.005Z,-2.20
2018-11-23T02:03:42.566Z,-2.20
2018-11-23T02:06:11.275Z,-2.30
2018-11-23T02:08:41.376Z,-2.30
2018-11-23T02:11:11.940Z,-2.20
2018-11-23T02:13:41.011Z,-2.30
2018-11-23T02:16:10.278Z,-2.30
2018-11-23T02:18:41.172Z,-2.30
2018-11-23T02:21:10.271Z,-2.30
2018-11-23T02:23:39.237Z,-2.30
2018-11-23T02:26:09.265Z,-2.30
2018-11-23T02:28:36.870Z,-2.40
2018-11-23T02:31:08.498Z,-2.50
2018-11-23T02:33:37.488Z,-2.50
2018-11-23T02:36:05.533Z,-2.40
2018-11-23T02:38:33.041Z,-2.50
2018-11-23T02:41:00.539Z,-2.50
2018-11-23T02:43:28.207Z,-2.50
2018-11-23T02:45:55.684Z,-2.50
2018-11-23T02:48:23.181Z,-2.60
2018-11-23T02:50:50.824Z,-2.60
2018-11-23T02:53:18.543Z,-2.60
2018-11-23T02:55:46.072Z,-2.70
2018-11-23T02:58:16.334Z,-2.70
2018-11-23T03:05:42.923Z,-2.60
2018-11-23T03:08:10.645Z,-2.70
2018-11-23T03:10:39.132Z,-2.70
2018-11-23T03:13:10.195Z,-2.70
2018-11-23T03:15:40.017Z,-2.80
2018-11-23T03:18:09.421Z,-2.80
2018-11-23T03:20:39.382Z,-2.80
2018-11-23T03:23:10.473Z,-2.80
2018-11-23T03:25:40.373Z,-2.90
2018-11-23T03:28:10.222Z,-2.90
2018-11-23T03:30:38.992Z,-2.90
2018-11-23T03:33:06.698Z,-2.90
2018-11-23T03:35:34.344Z,-3.00
2018-11-23T03:38:03.920Z,-3.00
2018-11-23T03:40:31.581Z,-3.00
2018-11-23T03:42:59.193Z,-3.00
2018-11-23T03:45:27.033Z,-3.00
2018-11-23T03:47:57.402Z,-3.00
2018-11-23T03:50:24.970Z,-3.00
2018-11-23T03:52:53.613Z,-3.00
2018-11-23T03:55:24.176Z,-3.00
2018-11-23T03:57:52.015Z,-3.00
2018-11-23T04:00:22.403Z,-3.10
2018-11-23T04:02:52.215Z,-3.10
2018-11-23T04:05:23.147Z,-3.10
2018-11-23T04:07:52.628Z,-3.20
2018-11-23T04:10:22.093Z,-3.20
2018-11-23T04:12:54.443Z,-3.20
2018-11-23T04:15:29.437Z,-3.20
2018-11-23T04:17:59.117Z,-3.10
2018-11-23T04:20:26.749Z,-3.10
2018-11-23T04:22:57.207Z,-3.20
2018-11-23T04:25:27.012Z,-3.20
2018-11-23T04:27:56.290Z,-3.10
2018-11-23T04:30:23.933Z,-3.10
2018-11-23T04:32:51.442Z,-3.10
2018-11-23T04:35:19.369Z,-3.10
2018-11-23T04:37:49.632Z,-3.20
2018-11-23T04:40:19.761Z,-3.20
2018-11-23T04:42:50.896Z,-3.30
2018-11-23T04:45:21.112Z,-3.20
2018-11-23T04:47:51.659Z,-3.20
2018-11-23T04:50:24.243Z,-3.30
2018-11-23T04:52:54.904Z,-3.30
2018-11-23T04:55:26.582Z,-3.30
2018-11-23T04:57:57.350Z,-3.30
2018-11-23T05:00:26.890Z,-3.30
2018-11-23T05:02:58.873Z,-3.30
2018-11-23T05:05:29.143Z,-3.40
2018-11-23T05:07:58.491Z,-3.40
2018-11-23T05:10:26.205Z,-3.30
2018-11-23T05:12:53.899Z,-3.30
2018-11-23T05:15:23.641Z,-3.30
2018-11-23T05:17:51.287Z,-3.30
2018-11-23T05:20:18.798Z,-3.30
2018-11-23T05:22:47.917Z,-3.30
2018-11-23T05:25:16.712Z,-3.30
2018-11-23T05:27:44.823Z,-3.40
2018-11-23T05:30:18.262Z,-3.40
2018-11-23T05:32:45.836Z,-3.50
2018-11-23T05:35:14.258Z,-3.50
2018-11-23T05:37:41.774Z,-3.50
2018-11-23T05:40:14.385Z,-3.50
2018-11-23T05:42:41.957Z,-3.40
2018-11-23T05:45:12.902Z,-3.30
2018-11-23T05:47:40.391Z,-3.20
2018-11-23T05:50:10.582Z,-3.20
2018-11-23T05:52:38.076Z,-3.20
2018-11-23T05:55:09.005Z,-3.20
2018-11-23T05:57:41.269Z,-3.20
2018-11-23T06:00:19.821Z,-3.20
2018-11-23T06:02:48.987Z,-3.10
2018-11-23T06:05:16.592Z,-3.10
2018-11-23T06:07:45.034Z,-3.10
2018-11-23T06:10:19.009Z,-3.10
2018-11-23T06:12:49.911Z,-3.10
2018-11-23T06:15:22.948Z,-3.20
2018-11-23T06:17:52.798Z,-3.10
2018-11-23T06:20:23.963Z,-3.20
2018-11-23T06:22:55.917Z,-3.20
2018-11-23T06:25:43.534Z,-3.30
2018-11-23T06:28:14.772Z,-3.30
2018-11-23T06:30:44.894Z,-3.30
2018-11-23T06:33:35.359Z,-3.30
2018-11-23T06:36:02.984Z,-3.30
2018-11-23T06:38:30.451Z,-3.30
2018-11-23T06:40:57.941Z,-3.20
2018-11-23T06:43:25.561Z,-3.20
2018-11-23T06:45:54.351Z,-3.20
2018-11-23T06:48:23.998Z,-3.20
2018-11-23T06:50:56.676Z,-3.20
2018-11-23T06:53:26.970Z,-3.20
2018-11-23T06:55:58.734Z,-3.20
2018-11-23T06:58:28.421Z,-3.20
2018-11-23T07:00:58.797Z,-3.30
2018-11-23T07:03:28.252Z,-3.30
2018-11-23T07:06:00.213Z,-3.30
2018-11-23T07:08:27.784Z,-3.30
2018-11-23T07:11:00.648Z,-3.30
2018-11-23T07:13:32.955Z,-3.30
2018-11-23T07:16:00.614Z,-3.30
2018-11-23T07:18:29.959Z,-3.30
2018-11-23T07:20:57.625Z,-3.30
2018-11-23T07:23:25.126Z,-3.30
2018-11-23T07:25:52.656Z,-3.30
2018-11-23T07:28:20.196Z,-3.30
2018-11-23T07:30:49.085Z,-3.30
2018-11-23T07:33:22.282Z,-3.20
2018-11-23T07:35:53.386Z,-3.20
2018-11-23T07:38:25.511Z,-3.10
2018-11-23T07:41:05.042Z,-3.10
2018-11-23T07:43:35.391Z,-3.10
2018-11-23T07:46:05.320Z,-3.00
2018-11-23T07:48:37.063Z,-3.00
2018-11-23T07:51:07.396Z,-2.90
2018-11-23T07:53:37.296Z,-2.90
2018-11-23T07:56:04.998Z,-2.90
2018-11-23T07:58:34.453Z,-2.90
2018-11-23T08:01:02.121Z,-2.80
2018-11-23T08:03:29.809Z,-2.80
2018-11-23T08:05:57.365Z,-2.70
2018-11-23T08:08:24.884Z,-2.70
2018-11-23T08:10:51.925Z,-2.70
2018-11-23T08:13:19.391Z,-2.60
2018-11-23T08:15:46.914Z,-2.60
2018-11-23T08:18:16.802Z,-2.50
2018-11-23T08:20:48.062Z,-2.40
2018-11-23T08:23:19.038Z,-2.30
2018-11-23T08:25:48.588Z,-2.20
2018-11-23T08:28:19.638Z,-2.10
2018-11-23T08:30:50.188Z,-2.10
2018-11-23T08:33:19.970Z,-2.00
2018-11-23T08:35:49.319Z,-1.90
2018-11-23T08:38:19.225Z,-1.80
2018-11-23T08:40:46.909Z,-1.70
2018-11-23T08:43:14.438Z,-1.50
2018-11-23T08:45:45.583Z,-1.40
2018-11-23T08:48:13.295Z,-1.20
2018-11-23T08:50:40.938Z,-1.00
2018-11-23T08:53:11.588Z,-1.00
2018-11-23T08:55:40.645Z,-0.80
2018-11-23T08:58:11.373Z,-0.70
2018-11-23T09:00:40.958Z,-0.40
2018-11-23T09:03:10.016Z,-0.20
2018-11-23T09:05:38.845Z,0.10
2018-11-23T09:08:13.652Z,0.30
2018-11-23T09:10:43.729Z,0.50
2018-11-23T09:13:13.559Z,0.80
2018-11-23T09:15:44.687Z,1.00
2018-11-23T09:18:14.871Z,1.20
2018-11-23T09:20:44.792Z,1.40
2018-11-23T09:23:14.789Z,1.50
2018-11-23T09:25:43.854Z,1.70
2018-11-23T09:28:11.480Z,1.80
2018-11-23T09:30:39.016Z,2.00
2018-11-23T09:33:07.062Z,2.00
2018-11-23T09:35:37.775Z,2.20
2018-11-23T09:38:07.275Z,2.30
2018-11-23T09:40:36.091Z,2.40
2018-11-23T09:43:06.085Z,2.50
2018-11-23T09:45:37.770Z,2.60
2018-11-23T09:48:06.782Z,2.80
2018-11-23T09:50:34.363Z,3.00
2018-11-23T09:53:03.056Z,3.10
2018-11-23T09:55:34.865Z,3.20
2018-11-23T09:58:02.473Z,3.30
2018-11-23T10:00:32.280Z,3.50
2018-11-23T10:03:00.361Z,3.70
2018-11-23T10:05:28.638Z,4.00
2018-11-23T10:07:58.397Z,4.20
2018-11-23T10:10:29.194Z,4.40
2018-11-23T10:12:59.272Z,4.60
2018-11-23T10:15:32.111Z,4.80
2018-11-23T10:18:02.347Z,4.90
2018-11-23T10:20:34.267Z,5.00
2018-11-23T10:23:05.019Z,5.10
2018-11-23T10:25:35.637Z,5.20
2018-11-23T10:28:05.440Z,5.30
2018-11-23T10:30:35.677Z,5.40
2018-11-23T10:33:06.199Z,5.50
2018-11-23T10:35:33.916Z,5.50
2018-11-23T10:38:02.901Z,5.70
2018-11-23T10:40:32.902Z,5.90
2018-11-23T10:43:00.515Z,6.10
2018-11-23T10:45:29.484Z,6.10
2018-11-23T10:47:57.810Z,6.30
2018-11-23T10:50:27.823Z,6.40
2018-11-23T10:52:57.301Z,6.50
2018-11-23T10:55:26.598Z,6.50
2018-11-23T10:57:55.431Z,6.60
2018-11-23T11:00:29.534Z,6.80
2018-11-23T11:03:01.473Z,6.80
2018-11-23T11:05:36.795Z,6.90
2018-11-23T11:08:06.569Z,7.00
2018-11-23T11:10:34.603Z,7.20
2018-11-23T11:13:04.065Z,7.30
2018-11-23T11:15:33.082Z,7.30
2018-11-23T11:18:02.602Z,7.40
2018-11-23T11:20:30.413Z,7.50
2018-11-23T11:22:59.332Z,7.50
2018-11-23T11:25:27.419Z,7.50
2018-11-23T11:27:54.958Z,7.50
2018-11-23T11:30:25.503Z,7.50
2018-11-23T11:32:53.144Z,7.50
2018-11-23T11:35:20.650Z,7.60
2018-11-23T11:37:48.180Z,7.60
2018-11-23T11:40:17.866Z,7.60
2018-11-23T11:42:46.062Z,7.50
2018-11-23T11:45:17.903Z,7.40
2018-11-23T11:47:46.832Z,7.30
2018-11-23T11:50:15.534Z,7.40
2018-11-23T11:52:45.659Z,7.30
2018-11-23T11:55:16.487Z,7.30
2018-11-23T11:57:46.479Z,7.20
2018-11-23T12:00:19.745Z,7.20
2018-11-23T12:02:49.350Z,7.20
2018-11-23T12:05:19.319Z,7.20
2018-11-23T12:07:47.191Z,7.20
2018-11-23T12:10:18.637Z,7.10
2018-11-23T12:12:46.181Z,7.10
2018-11-23T12:15:14.539Z,7.10
2018-11-23T12:17:42.269Z,7.10
2018-11-23T12:20:13.273Z,7.10
2018-11-23T12:22:40.857Z,7.20
2018-11-23T12:25:11.687Z,7.10
2018-11-23T12:27:41.883Z,7.20
2018-11-23T12:30:13.872Z,7.20
2018-11-23T12:32:44.802Z,7.20
2018-11-23T12:35:14.893Z,7.20
2018-11-23T12:37:43.951Z,7.20
2018-11-23T12:40:14.003Z,7.20
2018-11-23T12:42:43.359Z,7.20
2018-11-23T12:45:15.057Z,7.10
2018-11-23T12:47:44.040Z,7.20
2018-11-23T12:50:16.931Z,7.20
2018-11-23T12:52:47.680Z,7.10
2018-11-23T12:55:15.865Z,7.10
2018-11-23T12:57:43.576Z,7.00
2018-11-23T13:00:21.083Z,7.00
2018-11-23T13:02:50.233Z,7.00
2018-11-23T13:05:18.105Z,7.00
2018-11-23T13:07:45.612Z,7.00
2018-11-23T13:10:14.716Z,7.00
2018-11-23T13:12:50.892Z,7.00
2018-11-23T13:15:16.190Z,7.00
2018-11-23T13:17:51.522Z,7.00
2018-11-23T13:20:19.598Z,7.00
2018-11-23T13:22:51.106Z,7.00
2018-11-23T13:25:21.227Z,7.00
2018-11-23T13:27:53.415Z,7.00
2018-11-23T13:30:23.551Z,7.00
2018-11-23T13:32:53.619Z,7.00
2018-11-23T13:35:21.998Z,7.00
2018-11-23T13:37:50.990Z,7.00
2018-11-23T13:40:20.030Z,7.00
2018-11-23T13:42:51.251Z,7.00
2018-11-23T13:45:21.110Z,7.00
2018-11-23T13:47:49.068Z,6.90
2018-11-23T13:50:19.141Z,6.90
2018-11-23T13:52:47.554Z,6.90
2018-11-23T13:55:15.149Z,6.90
2018-11-23T13:57:42.672Z,6.80
2018-11-23T14:00:21.569Z,6.80
2018-11-23T14:02:50.947Z,6.80
2018-11-23T14:05:22.707Z,6.80
2018-11-23T14:07:53.207Z,6.70
2018-11-23T14:10:22.490Z,6.80
2018-11-23T14:12:51.865Z,6.70
2018-11-23T14:15:21.722Z,6.70
2018-11-23T14:17:51.801Z,6.70
2018-11-23T14:20:20.131Z,6.60
2018-11-23T14:23:26.354Z,6.60
2018-11-23T14:25:54.850Z,6.60
2018-11-23T14:28:25.786Z,6.50
2018-11-23T14:30:55.313Z,6.50
2018-11-23T14:33:24.696Z,6.40
2018-11-23T14:35:55.203Z,6.40
2018-11-23T14:38:26.740Z,6.50
2018-11-23T14:40:56.296Z,6.40
2018-11-23T14:43:26.176Z,6.40
2018-11-23T14:45:55.813Z,6.40
2018-11-23T14:48:26.622Z,6.30
2018-11-23T14:50:55.317Z,6.20
2018-11-23T14:53:25.061Z,6.20
2018-11-23T14:55:52.934Z,6.10
2018-11-23T14:58:20.449Z,6.10
2018-11-23T15:00:52.044Z,6.10
2018-11-23T15:03:22.330Z,6.00
2018-11-23T15:05:49.993Z,6.00
2018-11-23T15:08:19.797Z,6.00
2018-11-23T15:10:48.416Z,6.00
2018-11-23T15:13:17.971Z,5.90
2018-11-23T15:15:48.014Z,5.90
2018-11-23T15:18:17.033Z,5.80
2018-11-23T15:20:50.431Z,5.80
2018-11-23T15:23:19.224Z,5.80
2018-11-23T15:25:49.225Z,5.70
2018-11-23T15:28:16.809Z,5.60
2018-11-23T15:30:47.183Z,5.60
2018-11-23T15:33:18.094Z,5.60
2018-11-23T15:35:47.344Z,5.50
2018-11-23T15:38:17.066Z,5.50
2018-11-23T15:40:44.705Z,5.50
2018-11-23T15:43:13.311Z,5.50
2018-11-23T15:45:40.925Z,5.50
2018-11-23T15:48:10.440Z,5.40
2018-11-23T15:50:39.215Z,5.40
2018-11-23T15:53:08.164Z,5.40
2018-11-23T15:55:39.121Z,5.30
2018-11-23T15:58:08.855Z,5.30
2018-11-23T16:00:40.322Z,5.20
2018-11-23T16:03:10.256Z,5.10
2018-11-23T16:05:40.143Z,5.10
2018-11-23T16:08:13.004Z,5.10
2018-11-23T16:10:41.178Z,5.00
2018-11-23T16:13:13.198Z,5.00
2018-11-23T16:15:43.938Z,5.00
2018-11-23T16:18:14.746Z,5.00
2018-11-23T16:20:44.642Z,4.80
2018-11-23T16:23:19.630Z,4.80
2018-11-23T16:25:50.252Z,4.80
2018-11-23T16:28:17.903Z,4.80
2018-11-23T16:30:46.839Z,4.80
2018-11-23T16:33:16.068Z,4.70
2018-11-23T16:35:43.628Z,4.70
2018-11-23T16:38:13.540Z,4.70
2018-11-23T16:40:42.698Z,4.70
2018-11-23T16:43:11.445Z,4.70
2018-11-23T16:45:39.556Z,4.70
2018-11-23T16:48:08.177Z,4.60
2018-11-23T16:50:38.162Z,4.50
2018-11-23T16:53:07.474Z,4.40
2018-11-23T16:55:38.127Z,4.40
2018-11-23T16:58:07.478Z,4.30
2018-11-23T17:00:37.748Z,4.30
2018-11-23T17:03:11.405Z,4.30
2018-11-23T17:05:43.440Z,4.30
2018-11-23T17:08:11.078Z,4.30
2018-11-23T17:10:40.419Z,4.20
2018-11-23T17:13:09.079Z,4.20
2018-11-23T17:15:36.811Z,4.20
2018-11-23T17:18:04.602Z,4.20
2018-11-23T17:20:33.151Z,4.20
2018-11-23T17:23:01.553Z,4.20
2018-11-23T17:25:29.802Z,4.00
2018-11-23T17:27:58.598Z,4.10
2018-11-23T17:30:27.259Z,4.10
2018-11-23T17:32:54.989Z,4.20
2018-11-23T17:35:26.034Z,4.20
2018-11-23T17:37:56.175Z,4.10
2018-11-23T17:40:26.475Z,4.10
2018-11-23T17:42:56.134Z,4.10
2018-11-23T17:45:26.783Z,4.10
2018-11-23T17:47:56.062Z,4.00
2018-11-23T17:50:25.867Z,3.80
2018-11-23T17:52:55.527Z,3.70
2018-11-23T17:55:24.103Z,3.60
2018-11-23T17:57:54.188Z,3.60
2018-11-23T18:00:26.997Z,3.50
2018-11-23T18:02:55.092Z,3.40
2018-11-23T18:05:23.610Z,3.40
2018-11-23T18:07:51.947Z,3.30
2018-11-23T18:10:21.969Z,3.30
2018-11-23T18:12:51.788Z,3.30
2018-11-23T18:15:21.836Z,3.30
2018-11-23T18:17:50.450Z,3.30
2018-11-23T18:20:20.054Z,3.30
2018-11-23T18:22:48.595Z,3.30
2018-11-23T18:25:20.917Z,3.20
2018-11-23T18:27:49.648Z,3.20
2018-11-23T18:30:18.789Z,3.20
2018-11-23T18:32:46.350Z,3.10
2018-11-23T18:35:13.967Z,3.10
2018-11-23T18:37:44.235Z,3.10
2018-11-23T18:40:13.679Z,3.10
2018-11-23T18:42:42.948Z,3.10
2018-11-23T18:45:14.390Z,3.10
2018-11-23T18:47:43.447Z,3.10
2018-11-23T18:50:14.262Z,3.10
2018-11-23T18:52:43.971Z,3.10
2018-11-23T18:55:17.971Z,3.10
2018-11-23T18:57:42.163Z,3.10
2018-11-23T19:00:11.889Z,3.10
2018-11-23T19:02:41.055Z,3.10
2018-11-23T19:05:20.085Z,3.10
2018-11-23T19:07:47.925Z,3.10
2018-11-23T19:10:17.163Z,3.10
2018-11-23T19:12:44.738Z,3.10
2018-11-23T19:15:14.349Z,3.10
2018-11-23T19:17:41.928Z,3.10
2018-11-23T19:20:11.839Z,3.10
2018-11-23T19:22:40.933Z,3.10
2018-11-23T19:25:09.181Z,3.10
2018-11-23T19:27:36.775Z,3.10
2018-11-23T19:30:07.190Z,3.00
2018-11-23T19:32:38.635Z,3.00
2018-11-23T19:35:09.414Z,3.00
2018-11-23T19:37:41.602Z,3.10
2018-11-23T19:40:13.165Z,3.10
2018-11-23T19:42:42.400Z,3.10
2018-11-23T19:45:11.952Z,3.10
2018-11-23T19:47:41.390Z,3.10
2018-11-23T19:50:13.380Z,3.10
2018-11-23T19:53:33.680Z,3.20
2018-11-23T19:56:05.631Z,3.20
2018-11-23T19:58:35.291Z,3.20
2018-11-23T20:01:05.842Z,3.20
2018-11-23T20:03:33.809Z,3.10
2018-11-23T20:06:01.391Z,3.20
2018-11-23T20:08:29.646Z,3.10
2018-11-23T20:10:57.197Z,3.10
2018-11-23T20:13:24.930Z,3.10
2018-11-23T20:15:52.486Z,3.20
2018-11-23T20:18:22.699Z,3.10
2018-11-23T20:20:50.847Z,3.20
2018-11-23T20:23:18.407Z,3.20
2018-11-23T20:25:47.954Z,3.10
2018-11-23T20:28:16.488Z,3.10
2018-11-23T20:30:44.728Z,3.10
2018-11-23T20:33:13.119Z,3.10
2018-11-23T20:35:40.707Z,3.10
2018-11-23T20:38:08.291Z,3.10
2018-11-23T20:40:35.827Z,3.10
2018-11-23T20:43:03.999Z,3.00
2018-11-23T20:45:32.354Z,3.10
2018-11-23T20:48:00.404Z,3.10
2018-11-23T20:50:28.390Z,3.10
2018-11-23T20:52:56.242Z,3.00
2018-11-23T20:55:24.511Z,3.00
2018-11-23T20:57:52.688Z,3.00
2018-11-23T21:00:21.540Z,3.00
2018-11-23T21:02:50.222Z,3.00
2018-11-23T21:05:20.494Z,3.00
2018-11-23T21:07:48.659Z,3.00
2018-11-23T21:10:20.676Z,3.00
2018-11-23T21:12:47.560Z,3.00
2018-11-23T21:15:24.300Z,3.00
2018-11-23T21:17:53.174Z,3.00
2018-11-23T21:20:21.567Z,3.00
2018-11-23T21:22:49.236Z,2.90
2018-11-23T21:25:17.418Z,2.90
2018-11-23T21:27:44.918Z,2.90
2018-11-23T21:30:16.983Z,3.00
2018-11-23T21:32:45.808Z,2.90
2018-11-23T21:35:15.269Z,2.90
2018-11-23T21:37:44.541Z,2.90
2018-11-23T21:40:15.200Z,2.90
2018-11-23T21:42:43.379Z,2.90
2018-11-23T21:45:12.687Z,2.90
2018-11-23T21:47:40.410Z,2.90
2018-11-23T21:50:14.321Z,2.90
2018-11-23T21:52:42.420Z,2.90
2018-11-23T21:55:12.441Z,2.90
2018-11-23T21:57:40.762Z,2.80
2018-11-23T22:00:11.287Z,2.90
2018-11-23T22:02:39.323Z,2.80
2018-11-23T22:05:10.081Z,2.90
2018-11-23T22:07:38.364Z,2.90
2018-11-23T22:10:10.349Z,2.80
2018-11-23T22:12:38.083Z,2.90
2018-11-23T22:15:08.226Z,2.90
2018-11-23T22:17:38.168Z,2.80
2018-11-23T22:20:08.828Z,2.80
2018-11-23T22:22:40.458Z,2.80
2018-11-23T22:25:09.176Z,2.80
2018-11-23T22:27:41.247Z,2.80
2018-11-23T22:30:13.021Z,2.80
2018-11-23T22:32:40.942Z,2.80
2018-11-23T22:35:09.706Z,2.80
2018-11-23T22:37:39.311Z,2.70
2018-11-23T22:40:18.113Z,2.70
2018-11-23T22:42:48.109Z,2.70
2018-11-23T22:45:16.780Z,2.70
2018-11-23T22:47:45.440Z,2.80
2018-11-23T22:50:14.272Z,2.80
2018-11-23T22:52:42.335Z,2.80
2018-11-23T22:55:12.923Z,2.80
2018-11-23T22:57:40.554Z,2.90
2018-11-23T23:00:16.923Z,2.90
2018-11-23T23:02:44.556Z,2.80
2018-11-23T23:05:12.241Z,2.80
2018-11-23T23:07:39.853Z,2.90
2018-11-23T23:10:09.436Z,2.80
2018-11-23T23:12:37.074Z,2.80
2018-11-23T23:15:06.772Z,2.80
2018-11-23T23:17:35.135Z,2.80
2018-11-23T23:20:03.531Z,2.80
2018-11-23T23:22:31.452Z,2.80
2018-11-23T23:24:59.087Z,2.80
2018-11-23T23:27:27.103Z,2.80
2018-11-23T23:29:55.650Z,2.80
2018-11-23T23:32:31.067Z,2.80
2018-11-23T23:34:58.635Z,2.80
2018-11-23T23:37:26.233Z,2.80
2018-11-23T23:39:53.982Z,2.80
2018-11-23T23:42:21.579Z,2.80
2018-11-23T23:44:49.267Z,2.90
2018-11-23T23:47:16.798Z,2.80
2018-11-23T23:49:44.294Z,2.80
2018-11-23T23:52:11.821Z,2.90
2018-11-23T23:54:39.330Z,2.80
2018-11-23T23:57:07.427Z,2.80
2018-11-23T23:59:35.342Z,2.80
